createdAt,value
2022-10-22T00:00:47.996Z,99260.56
2022-10-22T00:03:15.435Z,99260.81
2022-10-22T00:05:43.768Z,99255.66
2022-10-22T00:08:13.756Z,99251.88
2022-10-22T00:10:41.484Z,99259.31
2022-10-22T00:13:08.990Z,99261.44
2022-10-22T00:15:36.472Z,99262.16
2022-10-22T00:18:04.093Z,99264.28
2022-10-22T00:20:31.588Z,99272.78
2022-10-22T00:22:59.042Z,99274.03
2022-10-22T00:25:27.894Z,99281.50
2022-10-22T00:27:55.373Z,99275.88
2022-10-22T00:30:23.011Z,99287.69
2022-10-22T00:32:50.450Z,99282.69
2022-10-22T00:35:17.988Z,99272.34
2022-10-22T00:37:45.475Z,99277.84
2022-10-22T00:40:13.571Z,99275.03
2022-10-22T00:42:42.869Z,99282.28
2022-10-22T00:45:20.916Z,99278.44
2022-10-22T00:47:54.316Z,99280.75
2022-10-22T00:50:25.501Z,99288.06
2022-10-22T00:52:53.460Z,99280.75
2022-10-22T00:55:22.768Z,99276.91
2022-10-22T00:57:52.315Z,99272.47
2022-10-22T01:00:20.184Z,99275.75
2022-10-22T01:02:49.686Z,99271.63
2022-10-22T01:05:17.474Z,99277.72
2022-10-22T01:07:48.133Z,99275.16
2022-10-22T01:10:26.595Z,99268.31
2022-10-22T01:13:07.264Z,99263.94
2022-10-22T01:15:39.943Z,99267.22
2022-10-22T01:18:11.433Z,99274.31
2022-10-22T01:20:59.599Z,99259.78
2022-10-22T01:23:56.493Z,99263.25
2022-10-22T01:26:32.350Z,99254.03
2022-10-22T01:29:07.527Z,99258.94
2022-10-22T01:31:39.300Z,99260.50
2022-10-22T01:34:09.139Z,99251.34
2022-10-22T01:36:38.704Z,99257.66
2022-10-22T01:39:08.225Z,99252.00
2022-10-22T01:41:36.667Z,99248.22
2022-10-22T01:44:05.788Z,99246.03
2022-10-22T01:46:33.610Z,99237.13
2022-10-22T01:49:17.337Z,99235.16
2022-10-22T01:51:53.425Z,99239.81
2022-10-22T01:54:32.297Z,99233.00
2022-10-22T01:57:07.930Z,99229.50
2022-10-22T01:59:46.590Z,99232.69
2022-10-22T02:02:25.353Z,99227.38
2022-10-22T02:04:59.385Z,99224.88
2022-10-22T02:07:32.689Z,99232.78
2022-10-22T02:10:01.883Z,99227.81
2022-10-22T02:12:31.723Z,99234.28
2022-10-22T02:15:03.769Z,99219.38
2022-10-22T02:17:35.719Z,99231.94
2022-10-22T02:20:09.441Z,99226.44
2022-10-22T02:22:38.067Z,99230.22
2022-10-22T02:25:07.196Z,99240.09
2022-10-22T02:27:40.562Z,99244.25
2022-10-22T02:30:12.444Z,99243.56
2022-10-22T02:32:45.785Z,99241.22
2022-10-22T02:35:18.290Z,99244.53
2022-10-22T02:37:46.524Z,99235.47
2022-10-22T02:40:14.366Z,99234.00
2022-10-22T02:42:43.465Z,99241.94
2022-10-22T02:45:12.676Z,99248.66
2022-10-22T02:47:40.149Z,99248.16
2022-10-22T02:50:10.306Z,99255.50
2022-10-22T02:52:38.742Z,99250.63
2022-10-22T02:55:07.523Z,99250.94
2022-10-22T02:57:35.079Z,99253.06
2022-10-22T03:00:02.775Z,99249.03
2022-10-22T03:02:31.609Z,99263.59
2022-10-22T03:04:59.159Z,99250.84
2022-10-22T03:07:26.661Z,99258.16
2022-10-22T03:09:54.206Z,99264.75
2022-10-22T03:12:21.692Z,99265.75
2022-10-22T03:14:49.171Z,99270.06
2022-10-22T03:17:16.678Z,99267.72
2022-10-22T03:19:45.502Z,99263.69
2022-10-22T03:22:18.553Z,99274.06
2022-10-22T03:24:49.904Z,99267.22
2022-10-22T03:27:21.015Z,99263.72
2022-10-22T03:29:51.881Z,99261.28
2022-10-22T03:32:19.409Z,99255.81
2022-10-22T03:34:48.599Z,99260.72
2022-10-22T03:37:16.155Z,99266.69
2022-10-22T03:39:43.789Z,99264.53
2022-10-22T03:42:13.228Z,99269.03
2022-10-22T03:44:41.784Z,99268.69
2022-10-22T03:47:09.269Z,99266.63
2022-10-22T03:49:36.758Z,99268.31
2022-10-22T03:52:10.433Z,99270.50
2022-10-22T03:57:07.303Z,99279.50
2022-10-22T03:59:36.078Z,99282.75
2022-10-22T04:02:03.686Z,99278.88
2022-10-22T04:04:31.202Z,99278.25
2022-10-22T04:06:58.739Z,99285.00
2022-10-22T04:09:27.668Z,99286.94
2022-10-22T04:11:55.206Z,99280.84
2022-10-22T04:14:22.883Z,99277.69
2022-10-22T04:16:50.361Z,99285.16
2022-10-22T04:19:18.264Z,99290.97
2022-10-22T04:21:45.777Z,99290.34
2022-10-22T04:24:13.249Z,99291.50
2022-10-22T04:26:42.179Z,99293.63
2022-10-22T04:29:13.375Z,99296.00
2022-10-22T04:31:43.536Z,99297.78
2022-10-22T04:34:11.065Z,99301.81
2022-10-22T04:36:38.652Z,99296.63
2022-10-22T04:39:06.564Z,99307.94
2022-10-22T04:41:36.364Z,99305.63
2022-10-22T04:44:06.216Z,99296.84
2022-10-22T04:46:35.881Z,99301.16
2022-10-22T04:49:04.622Z,99293.25
2022-10-22T04:51:33.215Z,99298.63
2022-10-22T04:54:00.805Z,99298.00
2022-10-22T04:56:30.037Z,99303.19
2022-10-22T04:59:00.085Z,99305.97
2022-10-22T05:01:31.182Z,99308.00
2022-10-22T05:04:00.771Z,99309.94
2022-10-22T05:06:31.010Z,99300.63
2022-10-22T05:09:00.356Z,99317.06
2022-10-22T05:11:30.041Z,99316.25
2022-10-22T05:13:58.203Z,99310.63
2022-10-22T05:16:26.032Z,99307.25
2022-10-22T05:18:55.076Z,99318.84
2022-10-22T05:21:22.645Z,99319.22
2022-10-22T05:23:51.228Z,99323.13
2022-10-22T05:26:21.172Z,99322.19
2022-10-22T05:28:49.334Z,99334.41
2022-10-22T05:31:18.300Z,99338.19
2022-10-22T05:33:46.891Z,99345.84
2022-10-22T05:36:17.802Z,99347.19
2022-10-22T05:38:45.902Z,99346.69
2022-10-22T05:41:14.943Z,99347.13
2022-10-22T05:43:42.671Z,99340.28
2022-10-22T05:46:11.777Z,99335.06
2022-10-22T05:48:39.834Z,99352.25
2022-10-22T05:51:09.710Z,99356.88
2022-10-22T05:53:40.058Z,99355.19
2022-10-22T05:56:12.198Z,99353.13
2022-10-22T05:58:39.824Z,99365.44
2022-10-22T06:01:08.764Z,99363.13
2022-10-22T06:03:36.331Z,99368.94
2022-10-22T06:06:15.547Z,99368.22
2022-10-22T06:08:44.613Z,99370.06
2022-10-22T06:11:12.199Z,99368.03
2022-10-22T06:13:39.685Z,99363.31
2022-10-22T06:16:07.346Z,99366.72
2022-10-22T06:18:35.016Z,99378.19
2022-10-22T06:21:06.979Z,99374.56
2022-10-22T06:23:34.555Z,99386.47
2022-10-22T06:26:04.487Z,99382.94
2022-10-22T06:28:32.698Z,99392.34
2022-10-22T06:31:00.978Z,99396.50
2022-10-22T06:33:29.274Z,99391.72
2022-10-22T06:35:56.894Z,99403.31
2022-10-22T06:38:24.340Z,99406.16
2022-10-22T06:40:54.317Z,99410.22
2022-10-22T06:43:23.126Z,99404.88
2022-10-22T06:45:50.612Z,99416.44
2022-10-22T06:48:18.091Z,99416.13
2022-10-22T06:50:45.573Z,99425.75
2022-10-22T06:53:13.081Z,99427.03
2022-10-22T06:55:40.615Z,99437.66
2022-10-22T06:58:08.105Z,99445.44
2022-10-22T07:00:36.899Z,99439.34
2022-10-22T07:03:04.589Z,99454.03
2022-10-22T07:05:34.688Z,99457.06
2022-10-22T07:08:02.178Z,99462.78
2022-10-22T07:10:30.696Z,99450.03
2022-10-22T07:12:58.734Z,99466.19
2022-10-22T07:15:26.378Z,99467.22
2022-10-22T07:17:55.211Z,99464.53
2022-10-22T07:20:22.734Z,99468.81
2022-10-22T07:22:50.230Z,99470.84
2022-10-22T07:25:18.023Z,99470.28
2022-10-22T07:27:45.504Z,99474.22
2022-10-22T07:30:13.583Z,99479.84
2022-10-22T07:32:41.092Z,99481.06
2022-10-22T07:35:10.512Z,99483.94
2022-10-22T07:37:38.183Z,99485.03
2022-10-22T07:40:06.477Z,99486.38
2022-10-22T07:42:34.095Z,99480.69
2022-10-22T07:45:01.626Z,99490.19
2022-10-22T07:47:29.111Z,99497.41
2022-10-22T07:49:56.606Z,99499.00
2022-10-22T07:52:25.491Z,99494.97
2022-10-22T07:54:53.114Z,99511.56
2022-10-22T07:57:20.624Z,99503.63
2022-10-22T07:59:48.103Z,99503.41
2022-10-22T08:02:15.556Z,99511.34
2022-10-22T08:04:43.145Z,99504.59
2022-10-22T08:07:10.778Z,99511.28
2022-10-22T08:09:39.575Z,99519.22
2022-10-22T08:12:07.924Z,99516.41
2022-10-22T08:14:35.402Z,99523.28
2022-10-22T08:17:02.861Z,99514.13
2022-10-22T08:19:32.351Z,99522.06
2022-10-22T08:22:00.317Z,99532.84
2022-10-22T08:24:28.213Z,99529.91
2022-10-22T08:26:57.083Z,99528.22
2022-10-22T08:29:24.571Z,99531.25
2022-10-22T08:31:52.067Z,99539.38
2022-10-22T08:34:20.532Z,99538.66
2022-10-22T08:36:48.345Z,99551.91
2022-10-22T08:39:15.971Z,99550.78
2022-10-22T08:41:53.694Z,99548.22
2022-10-22T08:44:37.810Z,99550.44
2022-10-22T08:47:22.613Z,99558.88
2022-10-22T08:49:50.543Z,99559.72
2022-10-22T08:52:20.764Z,99562.66
2022-10-22T08:54:53.720Z,99564.13
2022-10-22T08:57:34.499Z,99580.16
2022-10-22T09:00:06.618Z,99573.50
2022-10-22T09:02:42.091Z,99587.09
2022-10-22T09:05:26.519Z,99583.56
2022-10-22T09:07:55.694Z,99586.75
2022-10-22T09:10:28.967Z,99588.53
2022-10-22T09:12:56.448Z,99590.03
2022-10-22T09:15:25.353Z,99589.56
2022-10-22T09:18:06.258Z,99590.38
2022-10-22T09:20:45.737Z,99594.19
2022-10-22T09:23:34.308Z,99589.69
2022-10-22T09:26:13.051Z,99594.56
2022-10-22T09:28:40.530Z,99603.28
2022-10-22T09:31:12.198Z,99602.00
2022-10-22T09:33:41.090Z,99602.00
2022-10-22T09:36:09.269Z,99601.78
2022-10-22T09:38:41.710Z,99606.53
2022-10-22T09:41:10.265Z,99610.41
2022-10-22T09:43:38.049Z,99605.69
2022-10-22T09:46:07.623Z,99606.50
2022-10-22T09:48:39.176Z,99614.81
2022-10-22T09:51:13.170Z,99605.56
2022-10-22T09:53:44.463Z,99613.34
2022-10-22T09:56:21.933Z,99608.13
2022-10-22T09:58:51.792Z,99632.47
2022-10-22T10:01:27.714Z,99628.81
2022-10-22T10:04:08.367Z,99627.91
2022-10-22T10:06:40.197Z,99638.81
2022-10-22T10:09:15.837Z,99628.53
2022-10-22T10:11:47.166Z,99640.31
2022-10-22T10:14:20.142Z,99634.03
2022-10-22T10:16:59.495Z,99646.91
2022-10-22T10:19:39.075Z,99643.72
2022-10-22T10:22:15.944Z,99652.16
2022-10-22T10:24:58.444Z,99651.94
2022-10-22T10:27:32.037Z,99661.31
2022-10-22T10:30:04.305Z,99651.91
2022-10-22T10:32:48.894Z,99659.50
2022-10-22T10:35:24.798Z,99662.91
2022-10-22T10:38:05.104Z,99662.38
2022-10-22T10:40:41.557Z,99672.19
2022-10-22T10:43:14.457Z,99675.91
2022-10-22T10:45:55.607Z,99683.38
2022-10-22T10:48:33.249Z,99675.88
2022-10-22T10:51:23.516Z,99681.50
2022-10-22T10:54:02.813Z,99676.19
2022-10-22T10:56:39.668Z,99679.50
2022-10-22T10:59:17.448Z,99675.59
2022-10-22T11:01:57.112Z,99670.72
2022-10-22T11:04:46.698Z,99672.19
2022-10-22T11:07:33.496Z,99670.41
2022-10-22T11:10:09.736Z,99673.72
2022-10-22T11:12:43.433Z,99669.22
2022-10-22T11:15:23.672Z,99682.53
2022-10-22T11:17:55.478Z,99681.34
2022-10-22T11:20:27.228Z,99672.03
2022-10-22T11:23:19.003Z,99664.44
2022-10-22T11:25:50.131Z,99680.22
2022-10-22T11:28:22.034Z,99675.03
2022-10-22T11:30:55.875Z,99686.09
2022-10-22T11:33:27.686Z,99690.13
2022-10-22T11:35:58.191Z,99680.44
2022-10-22T11:38:29.067Z,99693.44
2022-10-22T11:41:01.230Z,99680.69
2022-10-22T11:43:31.821Z,99684.09
2022-10-22T11:46:08.963Z,99684.72
2022-10-22T11:48:38.811Z,99673.94
2022-10-22T11:51:32.990Z,99683.44
2022-10-22T11:54:03.880Z,99684.19
2022-10-22T11:56:39.602Z,99686.97
2022-10-22T11:59:35.361Z,99692.63
2022-10-22T12:02:02.849Z,99690.66
2022-10-22T12:04:42.887Z,99694.22
2022-10-22T12:07:34.408Z,99691.63
2022-10-22T12:10:06.773Z,99688.28
2022-10-22T12:12:37.214Z,99690.50
2022-10-22T12:15:24.471Z,99696.13
2022-10-22T12:17:52.251Z,99696.59
2022-10-22T12:20:19.800Z,99691.94
2022-10-22T12:22:49.059Z,99688.50
2022-10-22T12:25:22.805Z,99678.59
2022-10-22T12:27:53.364Z,99678.03
2022-10-22T12:30:23.556Z,99679.00
2022-10-22T12:32:54.141Z,99674.44
2022-10-22T12:35:24.640Z,99680.44
2022-10-22T12:37:56.770Z,99687.56
2022-10-22T12:40:26.611Z,99686.13
2022-10-22T12:42:57.487Z,99683.41
2022-10-22T12:45:29.049Z,99687.91
2022-10-22T12:47:58.260Z,99687.81
2022-10-22T12:50:33.754Z,99680.84
2022-10-22T12:53:02.640Z,99683.78
2022-10-22T12:55:32.663Z,99682.91
2022-10-22T12:58:00.602Z,99681.28
2022-10-22T13:00:33.640Z,99679.19
2022-10-22T13:03:06.100Z,99676.91
2022-10-22T13:05:38.989Z,99666.91
2022-10-22T13:08:11.224Z,99672.03
2022-10-22T13:10:40.580Z,99670.84
2022-10-22T13:13:08.546Z,99671.81
2022-10-22T13:15:39.891Z,99673.75
2022-10-22T13:18:17.062Z,99673.97
2022-10-22T13:20:52.606Z,99674.91
2022-10-22T13:23:23.457Z,99669.31
2022-10-22T13:25:59.044Z,99680.69
2022-10-22T13:28:27.480Z,99688.53
2022-10-22T13:30:57.064Z,99683.41
2022-10-22T13:33:27.551Z,99682.03
2022-10-22T13:35:56.358Z,99683.88
2022-10-22T13:38:26.882Z,99698.47
2022-10-22T13:40:55.069Z,99686.25
2022-10-22T13:43:23.055Z,99679.75
2022-10-22T13:45:54.703Z,99681.09
2022-10-22T13:48:24.776Z,99680.38
2022-10-22T13:50:53.569Z,99688.06
2022-10-22T13:53:24.626Z,99694.31
2022-10-22T13:55:53.519Z,99679.75
2022-10-22T13:58:24.449Z,99689.56
2022-10-22T14:00:55.507Z,99692.75
2022-10-22T14:03:26.666Z,99703.59
2022-10-22T14:05:54.235Z,99707.16
2022-10-22T14:08:24.183Z,99706.66
2022-10-22T14:10:53.342Z,99708.78
2022-10-22T14:13:21.978Z,99712.38
2022-10-22T14:15:52.341Z,99713.63
2022-10-22T14:18:26.753Z,99716.97
2022-10-22T14:20:55.971Z,99711.38
2022-10-22T14:23:26.450Z,99720.63
2022-10-22T14:25:55.300Z,99712.44
2022-10-22T14:28:22.907Z,99713.19
2022-10-22T14:30:51.055Z,99710.88
2022-10-22T14:33:23.846Z,99701.78
2022-10-22T14:35:53.540Z,99708.06
2022-10-22T14:38:21.074Z,99706.94
2022-10-22T14:40:49.218Z,99702.81
2022-10-22T14:43:22.122Z,99711.63
2022-10-22T14:45:49.728Z,99706.47
2022-10-22T14:48:17.234Z,99703.78
2022-10-22T14:50:45.529Z,99715.31
2022-10-22T14:53:14.626Z,99714.34
2022-10-22T14:55:44.055Z,99708.81
2022-10-22T14:58:12.245Z,99704.88
2022-10-22T15:00:42.198Z,99701.09
2022-10-22T15:03:11.103Z,99711.88
2022-10-22T15:05:43.327Z,99715.81
2022-10-22T15:08:11.153Z,99718.25
2022-10-22T15:10:38.664Z,99709.69
2022-10-22T15:13:06.242Z,99708.44
2022-10-22T15:15:36.739Z,99706.94
2022-10-22T15:18:08.210Z,99700.47
2022-10-22T15:20:35.862Z,99704.25
2022-10-22T15:23:03.456Z,99711.09
2022-10-22T15:25:31.098Z,99711.72
2022-10-22T15:28:02.046Z,99716.97
2022-10-22T15:30:36.512Z,99719.44
2022-10-22T15:33:03.997Z,99723.88
2022-10-22T15:35:32.875Z,99725.84
2022-10-22T15:38:00.333Z,99730.44
2022-10-22T15:40:27.929Z,99726.16
2022-10-22T15:42:55.372Z,99730.72
2022-10-22T15:45:24.894Z,99731.94
2022-10-22T15:47:52.412Z,99729.47
2022-10-22T15:50:19.906Z,99730.56
2022-10-22T15:52:48.772Z,99731.41
2022-10-22T15:55:16.451Z,99729.47
2022-10-22T15:57:44.407Z,99725.19
2022-10-22T16:00:13.453Z,99728.00
2022-10-22T16:02:41.082Z,99728.09
2022-10-22T16:05:09.356Z,99727.47
2022-10-22T16:07:36.843Z,99740.22
2022-10-22T16:10:07.623Z,99738.28
2022-10-22T16:12:35.821Z,99737.91
2022-10-22T16:15:03.342Z,99736.09
2022-10-22T16:17:30.805Z,99733.41
2022-10-22T16:19:58.340Z,99739.63
2022-10-22T16:22:25.867Z,99742.31
2022-10-22T16:24:53.323Z,99750.13
2022-10-22T16:27:22.136Z,99747.69
2022-10-22T16:29:49.580Z,99758.34
2022-10-22T16:32:17.804Z,99759.78
2022-10-22T16:34:45.273Z,99751.34
2022-10-22T16:37:12.744Z,99753.91
2022-10-22T16:39:40.199Z,99754.63
2022-10-22T16:42:07.668Z,99762.63
2022-10-22T16:44:36.472Z,99762.28
2022-10-22T16:47:04.090Z,99765.09
2022-10-22T16:49:31.565Z,99756.44
2022-10-22T16:51:59.023Z,99756.22
2022-10-22T16:54:26.500Z,99759.38
2022-10-22T16:56:53.953Z,99751.75
2022-10-22T16:59:21.415Z,99755.09
2022-10-22T17:01:50.229Z,99757.69
2022-10-22T17:04:17.944Z,99762.09
2022-10-22T17:06:45.421Z,99759.00
2022-10-22T17:09:12.935Z,99762.31
2022-10-22T17:11:42.510Z,99764.34
2022-10-22T17:14:11.594Z,99762.06
2022-10-22T17:16:39.100Z,99763.91
2022-10-22T17:19:08.148Z,99761.59
2022-10-22T17:21:35.613Z,99766.88
2022-10-22T17:24:03.158Z,99769.28
2022-10-22T17:26:33.137Z,99763.66
2022-10-22T17:29:00.940Z,99765.56
2022-10-22T17:31:32.474Z,99775.47
2022-10-22T17:34:00.732Z,99775.53
2022-10-22T17:36:34.824Z,99778.75
2022-10-22T17:39:06.824Z,99778.00
2022-10-22T17:41:36.637Z,99781.59
2022-10-22T17:44:06.440Z,99778.53
2022-10-22T17:46:34.011Z,99782.53
2022-10-22T17:49:04.304Z,99774.00
2022-10-22T17:51:33.191Z,99774.41
2022-10-22T17:54:01.709Z,99778.94
2022-10-22T17:56:31.167Z,99779.78
2022-10-22T17:58:59.629Z,99787.50
2022-10-22T18:01:28.968Z,99785.41
2022-10-22T18:04:01.141Z,99786.78
2022-10-22T18:06:29.130Z,99785.06
2022-10-22T18:08:58.422Z,99792.16
2022-10-22T18:11:27.938Z,99797.25
2022-10-22T18:13:57.653Z,99789.25
2022-10-22T18:16:25.846Z,99786.44
2022-10-22T18:18:57.004Z,99790.38
2022-10-22T18:21:26.388Z,99792.69
2022-10-22T18:23:54.469Z,99792.94
2022-10-22T18:26:26.001Z,99799.84
2022-10-22T18:28:54.593Z,99794.13
2022-10-22T18:31:24.149Z,99792.31
2022-10-22T18:36:22.136Z,99799.84
2022-10-22T18:38:50.385Z,99797.56
2022-10-22T18:41:18.408Z,99799.69
2022-10-22T18:43:50.963Z,99796.66
2022-10-22T18:46:18.628Z,99800.41
2022-10-22T18:48:46.976Z,99797.94
2022-10-22T18:51:16.498Z,99800.69
2022-10-22T18:53:53.743Z,99792.06
2022-10-22T18:56:31.688Z,99792.19
2022-10-22T18:59:00.485Z,99796.13
2022-10-22T19:01:29.859Z,99794.50
2022-10-22T19:03:57.591Z,99786.41
2022-10-22T19:06:29.965Z,99784.81
2022-10-22T19:08:59.337Z,99785.53
2022-10-22T19:11:27.243Z,99783.81
2022-10-22T19:13:54.720Z,99786.00
2022-10-22T19:16:24.587Z,99784.50
2022-10-22T19:18:53.058Z,99790.53
2022-10-22T19:21:21.704Z,99782.72
2022-10-22T19:23:49.399Z,99787.34
2022-10-22T19:26:18.640Z,99784.88
2022-10-22T19:28:46.374Z,99784.81
2022-10-22T19:31:18.670Z,99779.31
2022-10-22T19:33:47.793Z,99786.50
2022-10-22T19:36:17.802Z,99785.22
2022-10-22T19:38:47.590Z,99787.03
2022-10-22T19:41:17.160Z,99790.47
2022-10-22T19:43:45.921Z,99779.44
2022-10-22T19:46:14.135Z,99777.31
2022-10-22T19:48:41.640Z,99781.06
2022-10-22T19:51:15.313Z,99779.13
2022-10-22T19:53:42.973Z,99774.16
2022-10-22T19:56:12.503Z,99770.63
2022-10-22T19:58:40.027Z,99769.31
2022-10-22T20:01:09.150Z,99771.38
2022-10-22T20:03:37.830Z,99773.25
2022-10-22T20:06:07.158Z,99776.44
2022-10-22T20:08:37.830Z,99773.97
2022-10-22T20:11:07.133Z,99773.56
2022-10-22T20:13:34.777Z,99774.53
2022-10-22T20:16:05.052Z,99780.88
2022-10-22T20:18:33.925Z,99781.97
2022-10-22T20:21:05.282Z,99781.88
2022-10-22T20:23:32.780Z,99776.53
2022-10-22T20:26:01.926Z,99786.09
2022-10-22T20:28:29.387Z,99786.97
2022-10-22T20:30:56.856Z,99783.06
2022-10-22T20:33:24.767Z,99781.41
2022-10-22T20:35:59.844Z,99774.41
2022-10-22T20:38:27.373Z,99781.66
2022-10-22T20:41:04.770Z,99780.03
2022-10-22T20:43:32.892Z,99774.78
2022-10-22T20:46:00.854Z,99786.41
2022-10-22T20:48:31.194Z,99783.16
2022-10-22T20:50:59.736Z,99785.34
2022-10-22T20:53:28.381Z,99783.50
2022-10-22T20:55:59.750Z,99782.38
2022-10-22T20:58:30.538Z,99788.63
2022-10-22T21:00:58.476Z,99782.41
2022-10-22T21:03:26.084Z,99788.75
2022-10-22T21:05:53.610Z,99775.53
2022-10-22T21:08:21.075Z,99785.47
2022-10-22T21:10:49.012Z,99775.97
2022-10-22T21:13:19.384Z,99773.72
2022-10-22T21:15:48.872Z,99779.78
2022-10-22T21:18:16.721Z,99776.84
2022-10-22T21:20:44.214Z,99776.63
2022-10-22T21:23:11.700Z,99780.94
2022-10-22T21:25:41.966Z,99777.50
2022-10-22T21:28:11.821Z,99776.25
2022-10-22T21:30:45.613Z,99774.00
2022-10-22T21:33:14.639Z,99770.22
2022-10-22T21:35:50.040Z,99789.63
2022-10-22T21:38:17.526Z,99775.56
2022-10-22T21:40:45.040Z,99790.78
2022-10-22T21:43:12.742Z,99786.06
2022-10-22T21:45:40.271Z,99781.78
2022-10-22T21:48:07.875Z,99780.47
2022-10-22T21:50:39.537Z,99781.44
2022-10-22T21:53:07.080Z,99783.69
2022-10-22T21:55:39.037Z,99792.69
2022-10-22T21:58:06.766Z,99787.44
2022-10-22T22:00:34.879Z,99772.94
2022-10-22T22:03:02.632Z,99779.28
2022-10-22T22:05:30.311Z,99781.41
2022-10-22T22:07:59.113Z,99780.34
2022-10-22T22:10:26.934Z,99784.41
2022-10-22T22:12:54.398Z,99789.69
2022-10-22T22:15:21.998Z,99795.38
2022-10-22T22:17:49.458Z,99792.69
2022-10-22T22:20:17.125Z,99787.31
2022-10-22T22:22:44.715Z,99784.00
2022-10-22T22:25:13.651Z,99777.97
2022-10-22T22:27:41.630Z,99785.00
2022-10-22T22:30:10.856Z,99780.88
2022-10-22T22:32:38.319Z,99780.34
2022-10-22T22:35:06.563Z,99770.81
2022-10-22T22:37:34.002Z,99770.16
2022-10-22T22:40:01.809Z,99767.16
2022-10-22T22:42:30.646Z,99761.16
2022-10-22T22:44:58.909Z,99759.66
2022-10-22T22:47:26.415Z,99763.72
2022-10-22T22:49:53.928Z,99764.56
2022-10-22T22:54:53.764Z,99748.59
2022-10-22T22:57:21.296Z,99760.06
2022-10-22T22:59:53.997Z,99753.84
2022-10-22T23:02:21.473Z,99756.34
2022-10-22T23:04:48.929Z,99755.47
2022-10-22T23:07:16.417Z,99748.09
2022-10-22T23:09:44.198Z,99747.66
2022-10-22T23:12:11.637Z,99748.09
2022-10-22T23:14:39.186Z,99745.81
2022-10-22T23:17:08.074Z,99743.25
2022-10-22T23:19:35.597Z,99749.69
2022-10-22T23:22:03.131Z,99742.28
2022-10-22T23:24:30.855Z,99743.91
2022-10-22T23:27:01.768Z,99743.78
2022-10-22T23:29:31.436Z,99735.16
2022-10-22T23:32:01.392Z,99735.59
2022-10-22T23:34:31.269Z,99732.63
2022-10-22T23:36:59.484Z,99726.63
2022-10-22T23:39:29.321Z,99725.41
2022-10-22T23:41:57.265Z,99726.50
2022-10-22T23:44:25.725Z,99721.56
2022-10-22T23:46:53.333Z,99725.09
2022-10-22T23:49:20.816Z,99726.63
2022-10-22T23:51:49.799Z,99717.16
2022-10-22T23:54:18.714Z,99721.00
2022-10-22T23:56:46.653Z,99732.72
